Time;durP1;ratioP1;P1;durP2;ratioP2;P2;SDS_P1;SDS_P2;PMS_P1;PMS_P2;Temp;Humidity;BMP_temperature;BMP_pressure;BME280_temperature;BME280_humidity;BME280_pressure;Samples;Min_cycle;Max_cycle;Signal;HPM_P1;HPM_P2
2022/07/19 00:00:08;;;;;;;;;9.00;7.00;;;;;28.55;41.70;101291.31;4999378;28;45757;-84
2022/07/19 00:02:34;;;;;;;;;10.50;8.00;;;;;28.49;39.76;101291.00;5018019;28;45376;-85
2022/07/19 00:04:59;;;;;;;;;11.25;7.50;;;;;28.43;40.96;101286.25;4999586;28;45475;-85
2022/07/19 00:07:24;;;;;;;;;8.50;7.25;;;;;28.41;39.87;101283.72;5000156;28;46346;-85
2022/07/19 00:09:50;;;;;;;;;9.00;7.75;;;;;28.41;41.19;101290.94;4984982;28;45309;-84
2022/07/19 00:12:15;;;;;;;;;8.25;8.00;;;;;28.38;40.14;101286.72;4979569;28;60944;-83
2022/07/19 00:14:41;;;;;;;;;11.00;8.00;;;;;28.32;38.27;101285.44;4988696;28;45654;-83
2022/07/19 00:17:06;;;;;;;;;7.25;6.75;;;;;28.34;36.97;101286.19;5000606;28;47468;-85
2022/07/19 00:19:31;;;;;;;;;11.00;9.25;;;;;28.33;36.56;101287.16;5016491;28;62352;-84
2022/07/19 00:21:57;;;;;;;;;12.75;9.50;;;;;28.30;36.38;101273.22;4998977;28;69068;-84
2022/07/19 00:24:22;;;;;;;;;11.50;10.25;;;;;28.33;36.88;101281.78;5016899;28;58750;-86
2022/07/19 00:26:47;;;;;;;;;7.00;7.00;;;;;28.34;35.82;101282.63;5017577;28;54897;-83
2022/07/19 00:29:13;;;;;;;;;12.25;9.25;;;;;28.34;36.54;101274.59;5016412;28;68024;-85
2022/07/19 00:31:38;;;;;;;;;13.00;10.75;;;;;28.33;35.51;101278.28;5008257;28;45459;-84
2022/07/19 00:34:03;;;;;;;;;10.25;10.25;;;;;28.33;36.02;101273.75;5006547;28;45457;-84
2022/07/19 00:36:29;;;;;;;;;12.00;11.50;;;;;28.30;35.31;101271.38;5016762;28;63983;-85
2022/07/19 00:38:54;;;;;;;;;11.25;10.25;;;;;28.30;35.31;101278.56;5017237;28;45360;-85
2022/07/19 00:41:20;;;;;;;;;9.75;9.25;;;;;28.31;34.89;101278.44;5017685;28;45332;-84
2022/07/19 00:43:45;;;;;;;;;12.50;8.75;;;;;28.30;33.93;101276.72;5017153;28;45380;-84
2022/07/19 00:46:17;;;;;;;;;8.50;8.50;;;;;28.30;36.21;101276.72;5016716;28;56485;-84
2022/07/19 00:48:43;;;;;;;;;8.00;8.00;;;;;28.31;35.41;101274.91;4998334;28;45652;-85
2022/07/19 00:51:09;;;;;;;;;11.50;10.25;;;;;28.30;36.40;101273.22;4999905;28;45402;-85
2022/07/19 00:53:36;;;;;;;;;8.25;8.25;;;;;28.28;37.67;101270.69;5017044;28;45608;-85
2022/07/19 00:56:05;;;;;;;;;10.00;10.00;;;;;28.27;36.31;101269.00;5017079;28;46157;-85
2022/07/19 00:58:31;;;;;;;;;10.00;9.00;;;;;28.25;35.80;101264.78;4998881;28;45384;-84
2022/07/19 01:00:56;;;;;;;;;10.00;8.25;;;;;28.23;35.38;101264.09;4969048;28;45503;-85
2022/07/19 01:03:24;;;;;;;;;7.75;7.00;;;;;28.22;35.87;101265.94;4979826;28;45556;-85
2022/07/19 01:05:49;;;;;;;;;11.50;10.00;;;;;28.20;36.40;101270.59;4999156;28;46581;-85
2022/07/19 01:08:14;;;;;;;;;9.00;7.50;;;;;28.14;35.19;101260.47;4999676;28;45425;-85
2022/07/19 01:10:40;;;;;;;;;7.00;7.00;;;;;28.13;35.48;101258.78;4999076;28;45518;-85
2022/07/19 01:13:05;;;;;;;;;8.00;7.25;;;;;28.14;35.38;101260.47;5016909;28;45494;-85
2022/07/19 01:15:31;;;;;;;;;11.50;6.00;;;;;28.10;37.58;101253.72;4998389;28;55540;-85
2022/07/19 01:17:56;;;;;;;;;8.75;8.00;;;;;28.08;36.79;101259.22;4999142;28;45411;-85
2022/07/19 01:20:23;;;;;;;;;5.50;5.50;;;;;28.03;34.88;101245.44;5016113;28;45296;-85
2022/07/19 01:22:48;;;;;;;;;6.75;6.25;;;;;27.99;36.34;101244.88;5016898;28;45288;-85
2022/07/19 01:25:15;;;;;;;;;8.00;7.00;;;;;28.00;35.54;101253.75;5007074;28;46863;-84
2022/07/19 01:27:48;;;;;;;;;7.75;7.75;;;;;27.94;35.15;101254.34;5016782;28;45810;-85
2022/07/19 01:30:19;;;;;;;;;6.25;6.25;;;;;27.89;35.59;101240.50;4982405;28;45328;-84
2022/07/19 01:32:45;;;;;;;;;7.25;6.25;;;;;27.86;36.27;101241.66;4982056;28;45590;-85
2022/07/19 01:35:11;;;;;;;;;8.00;8.00;;;;;27.89;38.10;101259.25;4998747;28;48135;-84
2022/07/19 01:37:37;;;;;;;;;8.75;8.25;;;;;27.87;36.17;101256.69;4998409;28;45356;-85
2022/07/19 01:40:04;;;;;;;;;10.00;8.00;;;;;27.86;35.22;101246.16;4998823;28;45309;-84
2022/07/19 01:42:29;;;;;;;;;9.50;8.00;;;;;27.84;34.63;101245.44;5016514;28;45506;-84
2022/07/19 01:44:55;;;;;;;;;7.75;7.75;;;;;27.82;34.80;101250.94;4998611;28;45540;-84
2022/07/19 01:47:20;;;;;;;;;7.50;7.50;;;;;27.81;34.99;101246.59;4997846;28;47013;-84
2022/07/19 01:49:45;;;;;;;;;5.75;5.00;;;;;27.77;34.21;101243.38;4997729;28;59573;-84
2022/07/19 01:52:11;;;;;;;;;5.00;5.00;;;;;27.78;34.81;101244.19;5015293;28;62579;-84
2022/07/19 01:54:37;;;;;;;;;8.00;7.75;;;;;27.75;33.83;101234.66;5015411;28;67364;-84
2022/07/19 01:57:02;;;;;;;;;5.75;5.75;;;;;27.72;33.59;101236.75;5015908;28;45326;-84
2022/07/19 01:59:28;;;;;;;;;8.00;7.75;;;;;27.71;34.56;101238.59;5032198;28;45399;-85
2022/07/19 02:01:53;;;;;;;;;6.75;5.00;;;;;27.69;33.61;101240.59;4997403;28;60708;-85
2022/07/19 02:04:18;;;;;;;;;6.00;6.00;;;;;27.65;34.33;101233.81;5015591;28;52407;-85
2022/07/19 02:06:44;;;;;;;;;6.25;6.25;;;;;27.65;33.85;101239.16;4998135;28;62190;-85
2022/07/19 02:09:09;;;;;;;;;8.50;4.75;;;;;27.62;34.09;101234.13;5014939;28;61031;-84
2022/07/19 02:11:34;;;;;;;;;5.50;5.50;;;;;27.61;33.35;101235.91;5002859;28;60532;-85
2022/07/19 02:14:00;;;;;;;;;5.00;5.00;;;;;27.60;32.82;101236.94;4980812;28;74744;-84
2022/07/19 02:16:25;;;;;;;;;6.50;5.25;;;;;27.57;32.90;101236.38;5008816;28;45475;-86
2022/07/19 02:18:50;;;;;;;;;8.75;6.00;;;;;27.57;34.43;101239.88;4978469;28;45409;-85
2022/07/19 02:21:17;;;;;;;;;6.50;5.00;;;;;27.53;33.33;101224.28;4978001;28;57987;-84
2022/07/19 02:23:42;;;;;;;;;7.25;5.00;;;;;27.54;33.30;101223.28;4997702;28;46611;-85
2022/07/19 02:26:08;;;;;;;;;9.00;7.00;;;;;27.54;33.47;101225.94;5015714;28;46636;-85
2022/07/19 02:28:33;;;;;;;;;10.50;7.00;;;;;27.52;33.78;101223.41;5015556;28;45220;-84
2022/07/19 02:30:58;;;;;;;;;5.00;5.00;;;;;27.48;33.52;101222.03;4997799;28;45257;-84
2022/07/19 02:33:24;;;;;;;;;8.00;7.75;;;;;27.45;35.68;101213.44;4997406;28;73469;-84
2022/07/19 02:35:49;;;;;;;;;8.00;6.75;;;;;27.42;34.78;101226.09;5015330;28;49890;-85
2022/07/19 02:38:16;;;;;;;;;3.00;3.00;;;;;27.42;36.16;101223.44;4998150;28;45408;-85
2022/07/19 02:40:42;;;;;;;;;7.50;6.25;;;;;27.38;35.99;101216.69;4997517;28;45475;-83
2022/07/19 02:43:07;;;;;;;;;9.00;6.00;;;;;27.36;35.79;101221.34;5015928;28;46414;-85
2022/07/19 02:45:32;;;;;;;;;7.75;7.00;;;;;27.32;34.93;101206.59;4980182;28;68237;-85
2022/07/19 02:47:58;;;;;;;;;6.25;6.00;;;;;27.28;34.49;101207.84;4996042;28;45654;-86
2022/07/19 02:50:23;;;;;;;;;9.25;6.00;;;;;27.25;34.59;101213.44;4995609;28;49573;-86
2022/07/19 02:52:48;;;;;;;;;9.50;6.25;;;;;27.18;34.26;101207.81;5000904;28;53281;-85
2022/07/19 02:55:14;;;;;;;;;5.00;5.00;;;;;27.13;34.22;101210.06;4984565;28;45360;-85
2022/07/19 02:57:39;;;;;;;;;7.25;7.25;;;;;27.08;34.52;101201.66;4981111;28;45440;-85
2022/07/19 03:00:09;;;;;;;;;8.50;6.00;;;;;27.11;36.32;101209.34;4980095;28;53813;-83
2022/07/19 03:02:34;;;;;;;;;5.00;5.00;;;;;27.10;35.15;101204.16;4997868;28;45379;-84
2022/07/19 03:05:00;;;;;;;;;6.00;6.00;;;;;27.03;37.85;101201.22;5015347;28;45404;-85
2022/07/19 03:07:25;;;;;;;;;8.75;5.75;;;;;27.02;38.38;101207.53;5027952;28;45778;-84
2022/07/19 03:09:51;;;;;;;;;9.00;7.25;;;;;26.97;36.16;101199.13;5007780;28;50347;-86
2022/07/19 03:12:16;;;;;;;;;6.75;6.00;;;;;26.90;35.77;101200.66;5016398;28;45383;-86
2022/07/19 03:14:41;;;;;;;;;5.75;5.75;;;;;26.89;36.20;101196.28;5000985;28;45304;-85
2022/07/19 03:17:07;;;;;;;;;5.50;5.25;;;;;26.88;35.75;101203.47;4983987;28;55148;-85
2022/07/19 03:19:32;;;;;;;;;6.50;4.50;;;;;26.82;35.34;101198.69;5001088;28;45373;-86
2022/07/19 03:21:57;;;;;;;;;6.50;6.00;;;;;26.82;35.91;101199.53;5000686;28;48578;-85
2022/07/19 03:24:23;;;;;;;;;8.00;5.75;;;;;26.80;36.00;101197.94;4983741;28;45435;-85
2022/07/19 03:26:48;;;;;;;;;7.50;6.75;;;;;26.77;36.40;101200.91;4986612;28;45687;-85
2022/07/19 03:29:14;;;;;;;;;7.25;6.00;;;;;26.73;36.42;101199.53;5000489;28;45456;-85
2022/07/19 03:31:39;;;;;;;;;5.00;5.00;;;;;26.70;36.29;101207.78;4989671;28;47180;-85
2022/07/19 03:34:05;;;;;;;;;6.50;6.00;;;;;26.64;36.51;101209.19;5000408;28;45343;-84
2022/07/19 03:36:30;;;;;;;;;8.00;6.00;;;;;26.59;36.13;101200.72;4999815;28;45461;-84
2022/07/19 03:38:56;;;;;;;;;8.50;5.75;;;;;26.55;37.65;101204.63;5018008;28;45297;-85
2022/07/19 03:41:22;;;;;;;;;8.25;6.50;;;;;26.52;36.04;101205.75;5017389;28;46791;-85
2022/07/19 03:43:47;;;;;;;;;6.00;6.00;;;;;26.51;35.94;101204.06;5017179;28;49119;-84
2022/07/19 03:46:12;;;;;;;;;6.50;6.50;;;;;26.47;36.12;101200.00;5000755;28;45758;-85
2022/07/19 03:48:38;;;;;;;;;6.25;6.25;;;;;26.50;35.71;101209.53;5000520;28;45375;-85
2022/07/19 03:51:03;;;;;;;;;5.50;5.50;;;;;26.43;36.39;101196.75;5018006;28;46639;-85
2022/07/19 03:53:29;;;;;;;;;7.50;6.00;;;;;26.40;35.54;101193.50;5000577;28;45315;-85
2022/07/19 03:55:54;;;;;;;;;8.75;6.00;;;;;26.38;36.85;101195.47;5000207;28;48785;-85
2022/07/19 03:58:19;;;;;;;;;9.00;5.25;;;;;26.40;35.70;101198.84;5000166;28;45365;-85
2022/07/19 04:00:45;;;;;;;;;7.25;6.75;;;;;26.37;35.50;101199.94;4987423;28;48120;-85
2022/07/19 04:03:11;;;;;;;;;8.75;7.00;;;;;26.33;36.91;101198.53;4980895;28;45379;-85
2022/07/19 04:05:36;;;;;;;;;8.00;7.00;;;;;26.35;35.34;101201.91;4984048;28;45514;-85
2022/07/19 04:08:02;;;;;;;;;8.00;6.75;;;;;26.29;35.05;101196.28;4983274;28;45499;-86
2022/07/19 04:10:27;;;;;;;;;6.00;6.00;;;;;26.26;35.13;101186.72;5000052;28;45523;-85
2022/07/19 04:12:52;;;;;;;;;7.75;6.50;;;;;26.31;35.43;101203.16;4982850;28;45455;-85
2022/07/19 04:15:18;;;;;;;;;8.25;5.75;;;;;26.28;35.31;101192.78;4990749;28;45522;-85
2022/07/19 04:17:43;;;;;;;;;6.50;5.50;;;;;26.29;35.95;101194.44;4980294;28;45490;-85
2022/07/19 04:20:09;;;;;;;;;7.50;7.50;;;;;26.25;35.19;101190.38;4979814;28;45418;-85
2022/07/19 04:22:35;;;;;;;;;7.75;5.00;;;;;26.26;35.14;101192.03;4997363;28;45715;-85
2022/07/19 04:25:02;;;;;;;;;10.00;7.00;;;;;26.25;35.42;101193.88;4997052;28;45306;-85
2022/07/19 04:27:28;;;;;;;;;8.00;6.00;;;;;26.26;35.87;101198.25;4997875;28;45393;-86
2022/07/19 04:29:53;;;;;;;;;6.00;6.00;;;;;26.22;35.48;101182.63;4963540;28;46994;-85
2022/07/19 04:32:19;;;;;;;;;9.50;6.75;;;;;26.23;35.55;101189.66;4977924;28;45365;-86
2022/07/19 04:34:44;;;;;;;;;6.00;6.00;;;;;26.25;35.10;101195.72;4998002;28;45468;-85
2022/07/19 04:37:09;;;;;;;;;5.50;5.25;;;;;26.25;35.59;101190.38;4963766;28;47546;-86
2022/07/19 04:39:35;;;;;;;;;7.25;6.50;;;;;26.26;35.48;101190.25;4979701;28;45562;-86
2022/07/19 04:42:00;;;;;;;;;6.25;5.50;;;;;26.21;35.65;101189.81;4979877;28;45418;-86
2022/07/19 04:44:26;;;;;;;;;8.25;6.75;;;;;26.23;35.14;101200.34;4979623;28;45310;-85
2022/07/19 04:46:51;;;;;;;;;8.00;6.00;;;;;26.22;36.10;101191.47;4963383;28;45576;-86
2022/07/19 04:49:16;;;;;;;;;12.50;6.75;;;;;26.20;35.51;101190.75;4995846;28;45483;-85
2022/07/19 04:51:42;;;;;;;;;7.50;7.00;;;;;26.18;36.80;101184.72;4985494;28;45393;-86
2022/07/19 04:54:07;;;;;;;;;7.00;5.00;;;;;26.21;36.46;101191.63;4963515;28;48683;-84
2022/07/19 04:56:32;;;;;;;;;6.00;6.00;;;;;26.17;36.59;101182.19;4979577;28;45341;-85
2022/07/19 04:58:58;;;;;;;;;9.00;6.00;;;;;26.20;36.09;101188.09;4979946;28;47430;-85
2022/07/19 05:01:23;;;;;;;;;8.50;7.00;;;;;26.20;36.40;101182.75;4972153;28;62241;-85
2022/07/19 05:03:48;;;;;;;;;9.25;6.50;;;;;26.18;36.13;101174.06;4997585;28;45315;-85
2022/07/19 05:06:14;;;;;;;;;7.25;6.50;;;;;26.23;35.82;101189.66;4996995;28;56474;-85
2022/07/19 05:08:39;;;;;;;;;13.00;9.25;;;;;26.23;35.09;101179.84;4962761;28;52485;-85
2022/07/19 05:11:05;;;;;;;;;8.00;8.00;;;;;26.23;35.51;101182.50;4980603;28;60384;-85
2022/07/19 05:13:30;;;;;;;;;8.50;7.25;;;;;26.27;35.41;101183.06;5016427;28;53808;-84
2022/07/19 05:15:55;;;;;;;;;9.00;6.25;;;;;26.28;35.75;101179.44;4999670;28;45453;-86
2022/07/19 05:18:21;;;;;;;;;7.50;6.00;;;;;26.30;35.33;101181.94;4997229;28;50287;-86
2022/07/19 05:20:46;;;;;;;;;10.00;8.75;;;;;26.30;35.16;101182.81;5007500;28;45923;-85
2022/07/19 05:23:11;;;;;;;;;9.25;6.25;;;;;26.28;35.83;101174.09;4999582;28;45462;-85
2022/07/19 05:25:37;;;;;;;;;12.00;9.00;;;;;26.29;35.70;101170.44;4998574;28;45260;-85
2022/07/19 05:28:03;;;;;;;;;7.50;7.00;;;;;26.36;35.54;101179.59;4999016;28;46211;-85
2022/07/19 05:30:28;;;;;;;;;8.50;7.25;;;;;26.34;35.05;101178.88;4998673;28;45341;-85
2022/07/19 05:32:53;;;;;;;;;7.75;7.25;;;;;26.36;35.13;101178.75;5016611;28;45356;-84
2022/07/19 05:35:19;;;;;;;;;9.00;6.00;;;;;26.36;35.13;101165.41;4981930;28;46633;-85
2022/07/19 05:37:44;;;;;;;;;10.75;7.25;;;;;26.37;35.29;101177.75;4982227;28;51026;-85
2022/07/19 05:40:10;;;;;;;;;13.50;10.25;;;;;26.41;34.85;101177.38;4982931;28;45581;-85
2022/07/19 05:42:35;;;;;;;;;9.50;8.50;;;;;26.44;35.63;101176.22;5010139;28;45454;-85
2022/07/19 05:45:01;;;;;;;;;11.00;10.00;;;;;26.42;36.42;101170.19;4999039;28;45843;-86
2022/07/19 05:47:26;;;;;;;;;11.00;8.75;;;;;26.48;35.37;101174.97;5016428;28;45542;-86
2022/07/19 05:49:52;;;;;;;;;7.50;7.50;;;;;26.46;37.54;101155.59;5016332;28;45305;-86
2022/07/19 05:52:17;;;;;;;;;8.75;8.00;;;;;26.49;35.96;101158.00;4998260;28;45384;-86
2022/07/19 05:54:42;;;;;;;;;12.00;8.25;;;;;26.51;35.74;101158.69;4981781;28;45403;-84
2022/07/19 05:57:08;;;;;;;;;11.75;9.25;;;;;26.58;35.52;101165.16;4999082;28;46306;-85
2022/07/19 05:59:35;;;;;;;;;9.50;9.50;;;;;26.59;36.18;101153.50;4995303;28;60621;-85
2022/07/19 06:02:01;;;;;;;;;12.75;9.75;;;;;26.63;36.50;101149.63;5010461;28;45526;-85
2022/07/19 06:04:26;;;;;;;;;11.25;9.50;;;;;26.72;36.14;101168.44;4997425;28;45454;-85
2022/07/19 06:06:52;;;;;;;;;8.50;8.50;;;;;26.75;37.71;101162.84;5015920;28;46088;-85
2022/07/19 06:09:17;;;;;;;;;10.25;9.25;;;;;26.82;36.74;101166.63;5003714;28;45407;-86
2022/07/19 06:11:43;;;;;;;;;10.50;9.75;;;;;26.87;37.52;101166.19;5015050;28;45584;-86
2022/07/19 06:14:08;;;;;;;;;8.75;8.75;;;;;26.84;35.46;101152.16;4998621;28;45432;-86
2022/07/19 06:16:35;;;;;;;;;10.75;9.50;;;;;26.89;35.30;101151.72;5015608;28;46400;-86
2022/07/19 06:19:00;;;;;;;;;15.00;10.75;;;;;26.94;36.50;101151.31;4998286;28;45357;-87
2022/07/19 06:21:26;;;;;;;;;11.00;8.50;;;;;26.96;35.09;101144.00;4997497;28;46657;-85
2022/07/19 06:23:51;;;;;;;;;11.50;11.50;;;;;27.01;35.22;101147.09;4998035;28;45502;-87
2022/07/19 06:26:17;;;;;;;;;8.50;8.00;;;;;27.09;34.83;101144.53;4990115;28;46883;-87
2022/07/19 06:28:42;;;;;;;;;12.00;9.50;;;;;27.14;34.72;101136.94;4998426;28;45332;-86
2022/07/19 06:31:09;;;;;;;;;10.75;9.00;;;;;27.16;34.63;101134.13;4991341;28;45468;-86
2022/07/19 06:33:35;;;;;;;;;14.00;9.00;;;;;27.26;34.28;101134.97;4978525;28;45588;-87
2022/07/19 06:36:00;;;;;;;;;11.25;8.25;;;;;27.31;33.90;101132.72;4971610;28;48033;-87
2022/07/19 06:38:26;;;;;;;;;18.25;12.25;;;;;27.39;33.65;101134.66;4981402;28;45332;-86
2022/07/19 06:40:51;;;;;;;;;14.25;9.00;;;;;27.47;33.43;101128.59;4981187;28;45302;-86
2022/07/19 06:43:17;;;;;;;;;15.00;9.75;;;;;27.56;33.02;101127.72;4998004;28;46501;-86
2022/07/19 06:45:42;;;;;;;;;12.25;9.75;;;;;27.60;33.25;101119.28;5015210;28;45434;-87
2022/07/19 06:48:07;;;;;;;;;12.25;10.00;;;;;27.71;32.97;101117.38;5008114;28;45387;-88
2022/07/19 06:50:33;;;;;;;;;15.50;9.00;;;;;27.80;33.29;101127.22;5015557;28;45288;-86
2022/07/19 06:52:58;;;;;;;;;13.75;10.50;;;;;27.85;32.95;101119.59;5015147;28;45276;-87
2022/07/19 06:55:24;;;;;;;;;9.25;9.00;;;;;27.96;32.70;101121.25;4981488;28;48382;-87
2022/07/19 06:57:49;;;;;;;;;12.00;10.00;;;;;28.04;33.44;101132.06;4997814;28;45431;-87
2022/07/19 07:00:15;;;;;;;;;11.50;9.50;;;;;28.13;32.64;101133.00;5014581;28;45475;-87
2022/07/19 07:02:40;;;;;;;;;10.75;9.75;;;;;28.20;32.38;101134.09;4977808;28;45380;-87
2022/07/19 07:05:08;;;;;;;;;8.00;6.75;;;;;28.27;31.78;101131.63;4996790;28;46414;-87
2022/07/19 07:07:33;;;;;;;;;9.00;7.25;;;;;28.36;31.00;101122.69;5016611;28;45946;-88
2022/07/19 07:10:01;;;;;;;;;9.75;8.50;;;;;28.46;31.73;101125.34;4997636;28;45453;-87
2022/07/19 07:12:27;;;;;;;;;12.50;7.25;;;;;28.58;31.60;101124.13;4998641;28;45321;-88
2022/07/19 07:14:52;;;;;;;;;9.25;9.00;;;;;28.67;30.89;101119.69;4997614;28;45368;-87
2022/07/19 07:17:17;;;;;;;;;11.25;6.25;;;;;28.76;30.53;101116.09;5015234;28;64160;-87
2022/07/19 07:19:43;;;;;;;;;12.75;10.25;;;;;28.88;30.71;101114.00;4999587;28;62452;-87
2022/07/19 07:22:08;;;;;;;;;10.25;9.25;;;;;28.99;31.09;101111.06;5018071;28;45231;-88
2022/07/19 07:24:33;;;;;;;;;12.50;9.50;;;;;29.09;31.27;101116.38;5022098;28;68819;-88
2022/07/19 07:26:59;;;;;;;;;9.00;7.25;;;;;29.16;30.43;101106.75;5006872;28;49164;-84
2022/07/19 07:29:24;;;;;;;;;11.25;8.50;;;;;29.25;30.19;101110.28;5027010;28;52829;-85
2022/07/19 07:31:50;;;;;;;;;9.75;9.00;;;;;29.34;29.55;101106.66;5003777;28;45352;-89
2022/07/19 07:34:16;;;;;;;;;12.75;8.50;;;;;29.40;29.82;101099.81;5000316;28;45415;-85
2022/07/19 07:36:41;;;;;;;;;10.50;9.00;;;;;29.50;29.81;101103.25;4992377;28;46254;-86
2022/07/19 07:39:07;;;;;;;;;10.00;10.00;;;;;29.56;29.74;101097.25;5031665;28;45360;-85
2022/07/19 07:41:32;;;;;;;;;8.25;8.00;;;;;29.64;29.60;101094.63;5031167;28;68992;-87
2022/07/19 07:43:57;;;;;;;;;12.75;10.75;;;;;29.73;28.81;101090.97;4996453;28;52081;-85
2022/07/19 07:46:23;;;;;;;;;10.00;9.00;;;;;29.83;29.07;101095.38;4975838;28;72277;-86
2022/07/19 07:48:48;;;;;;;;;13.25;10.25;;;;;29.91;29.03;101090.03;5016103;28;68056;-91
2022/07/19 07:51:13;;;;;;;;;9.75;8.25;;;;;30.00;28.66;101082.88;4977497;28;56082;-86
2022/07/19 07:53:39;;;;;;;;;11.50;9.00;;;;;30.11;28.77;101085.25;4999290;28;73114;-87
2022/07/19 07:56:04;;;;;;;;;9.25;8.25;;;;;30.19;28.82;101079.03;4994747;28;68442;-87
2022/07/19 07:58:30;;;;;;;;;9.25;9.00;;;;;30.30;28.48;101076.88;4993496;28;45594;-86
2022/07/19 08:00:55;;;;;;;;;13.25;11.00;;;;;30.37;28.15;101074.41;4979732;28;64817;-86
2022/07/19 08:03:21;;;;;;;;;11.75;11.00;;;;;30.48;28.26;101071.41;4981597;28;61495;-87
2022/07/19 08:05:48;;;;;;;;;10.00;10.00;;;;;30.58;28.13;101071.22;4983501;28;45604;-87
2022/07/19 08:08:14;;;;;;;;;18.75;12.00;;;;;30.64;28.24;101070.53;4995751;28;45412;-87
2022/07/19 08:10:39;;;;;;;;;12.00;9.75;;;;;30.71;28.72;101068.03;4998208;28;45309;-87
2022/07/19 08:13:04;;;;;;;;;9.50;7.00;;;;;30.78;28.12;101068.22;5012816;28;70065;-88
2022/07/19 08:15:30;;;;;;;;;15.50;12.00;;;;;30.86;27.59;101066.34;4999909;28;45486;-85
2022/07/19 08:17:55;;;;;;;;;13.50;12.00;;;;;30.96;27.60;101068.91;5000193;28;45410;-86
2022/07/19 08:20:21;;;;;;;;;12.25;12.00;;;;;31.06;27.53;101069.53;4998961;28;60371;-85
2022/07/19 08:22:46;;;;;;;;;9.00;9.00;;;;;31.15;27.00;101061.44;5017282;28;45454;-84
2022/07/19 08:25:14;;;;;;;;;12.75;10.50;;;;;31.23;26.73;101058.75;5024831;28;45450;-85
2022/07/19 08:27:40;;;;;;;;;10.75;9.00;;;;;31.36;26.50;101056.34;5016850;28;45623;-85
2022/07/19 08:30:06;;;;;;;;;13.75;11.25;;;;;31.44;26.36;101052.78;5015688;28;62882;-87
2022/07/19 08:32:34;;;;;;;;;10.50;9.00;;;;;31.51;26.60;101047.59;4998920;28;45775;-89
2022/07/19 08:35:00;;;;;;;;;6.50;6.50;;;;;31.61;26.11;101045.53;4998317;28;45459;-87
2022/07/19 08:37:25;;;;;;;;;10.00;7.75;;;;;31.72;25.67;101038.91;5023814;28;45467;-87
2022/07/19 08:39:51;;;;;;;;;9.00;8.25;;;;;31.81;26.03;101041.38;4990506;28;45622;-87
2022/07/19 08:42:20;;;;;;;;;10.75;9.75;;;;;31.91;25.39;101043.88;4995811;28;48097;-87
2022/07/19 08:44:48;;;;;;;;;10.00;8.50;;;;;32.01;25.52;101043.63;4989283;28;46093;-87
2022/07/19 08:47:13;;;;;;;;;10.75;9.50;;;;;32.06;25.30;101037.75;4982607;28;45372;-87
2022/07/19 08:49:42;;;;;;;;;12.00;10.00;;;;;32.13;25.71;101031.50;4982458;28;55859;-86
2022/07/19 08:52:07;;;;;;;;;13.75;9.00;;;;;32.26;25.51;101033.56;4979077;28;47144;-87
2022/07/19 08:54:33;;;;;;;;;12.25;8.00;;;;;32.35;25.29;101039.72;4975613;28;51459;-87
2022/07/19 08:59:43;;;;;;;;;7.75;7.00;;;;;32.55;23.92;101035.50;4997349;28;45507;-86
2022/07/19 09:02:08;;;;;;;;;9.00;9.00;;;;;32.65;24.31;101024.50;4962915;28;46075;-87
2022/07/19 09:04:33;;;;;;;;;11.50;8.25;;;;;32.71;23.81;101025.66;5015613;28;45406;-87
2022/07/19 09:06:59;;;;;;;;;12.50;10.00;;;;;32.80;24.13;101024.53;4981533;28;58498;-87
2022/07/19 09:09:29;;;;;;;;;5.00;5.00;;;;;32.87;23.66;101028.16;5005111;28;45463;-86
2022/07/19 09:11:57;;;;;;;;;10.25;8.00;;;;;32.94;23.64;101021.03;5016207;28;45429;-87
2022/07/19 09:14:26;;;;;;;;;11.75;9.75;;;;;33.04;23.43;101012.66;4982449;28;45376;-87
2022/07/19 09:17:00;;;;;;;;;11.00;9.00;;;;;33.14;23.64;101015.13;4998539;28;45458;-87
2022/07/19 09:19:26;;;;;;;;;8.00;7.75;;;;;33.24;23.01;101009.44;5017040;28;45319;-87
2022/07/19 09:22:04;;;;;;;;;12.00;10.00;;;;;33.36;23.36;101011.47;4997931;28;45369;-86
2022/07/19 09:24:35;;;;;;;;;11.50;9.50;;;;;33.44;23.51;101005.13;4998803;28;45395;-86
2022/07/19 09:27:06;;;;;;;;;11.00;8.50;;;;;33.51;22.62;101002.53;4997963;28;45362;-88
2022/07/19 09:29:33;;;;;;;;;11.50;8.50;;;;;33.61;23.12;101010.31;4998519;28;45489;-87
2022/07/19 09:32:06;;;;;;;;;10.00;8.00;;;;;33.68;23.10;101001.31;5031331;28;45551;-88
2022/07/19 09:34:33;;;;;;;;;7.75;7.75;;;;;33.77;22.93;100993.94;5021482;28;45444;-87
2022/07/19 09:37:16;;;;;;;;;11.50;9.50;;;;;33.87;22.53;100997.13;5022227;28;45466;-89
2022/07/19 09:39:46;;;;;;;;;10.25;9.00;;;;;33.98;21.82;100992.28;4994661;28;45462;-89
2022/07/19 09:42:20;;;;;;;;;12.25;9.50;;;;;34.08;21.86;100988.22;4979215;28;45383;-88
2022/07/19 09:44:46;;;;;;;;;10.25;9.00;;;;;34.18;21.35;100982.53;4986923;28;45725;-90
2022/07/19 09:47:30;;;;;;;;;10.50;9.00;;;;;34.31;20.81;100981.81;4999809;28;45441;-90
2022/07/19 09:49:55;;;;;;;;;10.75;8.75;;;;;34.41;20.42;100971.47;4993129;28;45305;-86
2022/07/19 09:52:21;;;;;;;;;7.50;7.25;;;;;34.58;20.64;100974.72;4997744;28;64093;-85
2022/07/19 09:54:46;;;;;;;;;9.25;8.75;;;;;34.74;20.29;100972.78;5000250;28;45382;-92
2022/07/19 09:57:13;;;;;;;;;6.25;6.00;;;;;34.90;20.46;100969.78;4999127;28;45348;-92
2022/07/19 09:59:46;;;;;;;;;10.75;9.75;;;;;34.99;19.88;100976.66;4982749;28;45496;-89
2022/07/19 10:02:12;;;;;;;;;8.75;7.50;;;;;35.13;19.57;100968.63;4992127;28;47033;-94
2022/07/19 10:04:38;;;;;;;;;8.00;8.00;;;;;35.22;19.03;100968.28;4999969;28;45466;-95
2022/07/19 10:07:03;;;;;;;;;11.50;7.25;;;;;35.34;19.13;100963.13;4999053;28;52973;-93
2022/07/19 10:09:31;;;;;;;;;9.00;7.75;;;;;35.41;18.44;100960.44;4999209;28;45558;-94
2022/07/19 10:11:57;;;;;;;;;8.00;6.25;;;;;35.56;19.65;100961.13;5013786;28;45507;-96
2022/07/19 10:14:22;;;;;;;;;8.50;8.50;;;;;35.65;19.04;100956.34;5037177;28;45339;-93
2022/07/19 10:16:48;;;;;;;;;9.00;8.00;;;;;35.74;18.86;100952.44;4999350;28;51190;-91
2022/07/19 10:19:35;;;;;;;;;11.75;8.75;;;;;35.80;19.06;100950.78;5016770;28;45528;-90
2022/07/19 10:22:00;;;;;;;;;9.75;8.00;;;;;35.85;18.86;100937.47;4989692;28;47424;-90
2022/07/19 10:24:42;;;;;;;;;6.75;6.25;;;;;35.95;18.46;100942.47;4982628;28;49969;-90
2022/07/19 10:27:08;;;;;;;;;11.25;9.00;;;;;36.02;19.63;100933.31;4998933;28;45381;-90
2022/07/19 10:29:33;;;;;;;;;12.50;9.25;;;;;36.09;19.78;100929.75;4998425;28;45495;-91
2022/07/19 10:32:07;;;;;;;;;7.75;6.75;;;;;36.16;18.83;100917.91;4984200;28;73299;-90
2022/07/19 10:34:32;;;;;;;;;9.25;8.50;;;;;36.22;19.84;100914.38;4998120;28;45460;-88
2022/07/19 10:36:58;;;;;;;;;7.50;7.50;;;;;36.32;18.04;100921.25;5015943;28;45440;-87
2022/07/19 10:39:38;;;;;;;;;8.50;7.75;;;;;36.44;19.26;100908.69;4997294;28;45440;-86
2022/07/19 10:42:03;;;;;;;;;12.00;9.75;;;;;36.55;18.60;100910.78;4997657;28;48147;-88
2022/07/19 10:44:33;;;;;;;;;6.33;6.33;;;;;36.67;17.50;100908.28;5015830;28;45410;-87
2022/07/19 10:46:58;;;;;;;;;7.00;7.00;;;;;36.85;17.59;100893.19;5015187;28;45772;-86
2022/07/19 10:49:47;;;;;;;;;11.75;8.00;;;;;36.97;17.50;100896.91;5014913;28;45316;-86
2022/07/19 10:52:27;;;;;;;;;9.50;8.50;;;;;37.10;17.20;100902.25;4996933;28;45380;-85
2022/07/19 10:55:16;;;;;;;;;9.00;7.50;;;;;37.22;17.59;100890.75;5014775;28;45474;-90
2022/07/19 10:57:46;;;;;;;;;12.75;10.00;;;;;37.31;17.76;100895.69;4915440;28;45423;-87
2022/07/19 11:00:17;;;;;;;;;8.50;6.75;;;;;37.47;17.63;100886.22;4895124;28;45744;-88
2022/07/19 11:02:43;;;;;;;;;12.00;7.50;;;;;37.57;16.72;100883.00;4892443;28;47553;-86
2022/07/19 11:05:29;;;;;;;;;9.00;7.25;;;;;37.70;16.79;100877.50;4915295;28;45481;-85
2022/07/19 11:07:56;;;;;;;;;11.50;8.50;;;;;37.88;16.95;100881.34;4915290;28;45638;-85
2022/07/19 11:10:26;;;;;;;;;7.50;6.50;;;;;38.00;15.45;100865.16;4914881;28;45546;-84
2022/07/19 11:12:52;;;;;;;;;9.00;9.00;;;;;38.21;15.20;100874.81;4914439;28;46662;-85
2022/07/19 11:15:17;;;;;;;;;7.25;7.25;;;;;38.36;14.83;100864.41;4915195;28;45443;-85
2022/07/19 11:18:00;;;;;;;;;8.75;8.75;;;;;38.56;14.74;100868.81;4899918;28;45314;-86
2022/07/19 11:20:33;;;;;;;;;7.75;7.25;;;;;38.72;14.36;100860.84;4915690;28;45449;-85